sensor_id;sensor_type;location;lat;lon;timestamp;temperature;humidity
53645;DHT22;39547;45.554;12.068;2023-03-23T00:03:15;13.00;71.30
53645;DHT22;39547;45.554;12.068;2023-03-23T00:09:16;12.90;71.30
53645;DHT22;39547;45.554;12.068;2023-03-23T00:15:18;12.80;71.50
53645;DHT22;39547;45.554;12.068;2023-03-23T00:21:23;12.60;71.80
53645;DHT22;39547;45.554;12.068;2023-03-23T00:27:26;12.50;72.20
53645;DHT22;39547;45.554;12.068;2023-03-23T00:33:30;12.30;72.60
53645;DHT22;39547;45.554;12.068;2023-03-23T00:39:34;12.20;72.70
53645;DHT22;39547;45.554;12.068;2023-03-23T00:45:37;12.20;72.80
53645;DHT22;39547;45.554;12.068;2023-03-23T00:51:40;12.20;72.80
53645;DHT22;39547;45.554;12.068;2023-03-23T00:57:42;12.10;72.90
53645;DHT22;39547;45.554;12.068;2023-03-23T01:03:43;12.00;73.20
53645;DHT22;39547;45.554;12.068;2023-03-23T01:09:46;12.00;73.30
53645;DHT22;39547;45.554;12.068;2023-03-23T01:15:48;12.00;73.30
53645;DHT22;39547;45.554;12.068;2023-03-23T01:21:49;11.90;73.40
53645;DHT22;39547;45.554;12.068;2023-03-23T01:27:51;11.90;73.40
53645;DHT22;39547;45.554;12.068;2023-03-23T01:33:53;11.80;73.50
53645;DHT22;39547;45.554;12.068;2023-03-23T01:39:56;11.80;73.50
53645;DHT22;39547;45.554;12.068;2023-03-23T01:45:58;11.80;73.60
53645;DHT22;39547;45.554;12.068;2023-03-23T01:52:16;11.80;73.70
53645;DHT22;39547;45.554;12.068;2023-03-23T01:58:24;11.70;73.80
53645;DHT22;39547;45.554;12.068;2023-03-23T02:04:29;11.70;73.90
53645;DHT22;39547;45.554;12.068;2023-03-23T02:10:33;11.60;74.10
53645;DHT22;39547;45.554;12.068;2023-03-23T02:36:22;11.40;74.60
53645;DHT22;39547;45.554;12.068;2023-03-23T02:42:32;11.40;74.70
53645;DHT22;39547;45.554;12.068;2023-03-23T02:48:36;11.30;74.70
53645;DHT22;39547;45.554;12.068;2023-03-23T02:54:41;11.20;75.00
53645;DHT22;39547;45.554;12.068;2023-03-23T03:00:44;11.20;75.10
53645;DHT22;39547;45.554;12.068;2023-03-23T03:19:20;11.10;75.20
53645;DHT22;39547;45.554;12.068;2023-03-23T03:25:24;11.10;75.40
53645;DHT22;39547;45.554;12.068;2023-03-23T03:31:33;11.10;75.50
53645;DHT22;39547;45.554;12.068;2023-03-23T03:37:37;11.10;75.60
53645;DHT22;39547;45.554;12.068;2023-03-23T03:43:40;11.10;75.70
53645;DHT22;39547;45.554;12.068;2023-03-23T03:49:41;11.00;75.70
53645;DHT22;39547;45.554;12.068;2023-03-23T03:55:43;11.00;75.80
53645;DHT22;39547;45.554;12.068;2023-03-23T04:01:50;11.00;76.00
53645;DHT22;39547;45.554;12.068;2023-03-23T04:07:55;10.90;76.10
53645;DHT22;39547;45.554;12.068;2023-03-23T04:14:05;10.70;76.20
53645;DHT22;39547;45.554;12.068;2023-03-23T04:20:16;10.70;76.20
53645;DHT22;39547;45.554;12.068;2023-03-23T04:26:28;10.60;76.40
53645;DHT22;39547;45.554;12.068;2023-03-23T04:32:34;10.50;76.50
53645;DHT22;39547;45.554;12.068;2023-03-23T04:38:37;10.50;76.60
53645;DHT22;39547;45.554;12.068;2023-03-23T04:44:46;10.50;76.80
53645;DHT22;39547;45.554;12.068;2023-03-23T04:51:06;10.50;76.80
53645;DHT22;39547;45.554;12.068;2023-03-23T04:57:08;10.50;76.90
53645;DHT22;39547;45.554;12.068;2023-03-23T05:03:14;10.50;76.90
53645;DHT22;39547;45.554;12.068;2023-03-23T05:09:18;10.40;76.90
53645;DHT22;39547;45.554;12.068;2023-03-23T05:15:22;10.50;76.90
53645;DHT22;39547;45.554;12.068;2023-03-23T05:21:24;10.50;77.00
53645;DHT22;39547;45.554;12.068;2023-03-23T05:27:29;10.30;77.30
53645;DHT22;39547;45.554;12.068;2023-03-23T05:33:35;10.30;77.30
53645;DHT22;39547;45.554;12.068;2023-03-23T05:40:06;10.30;77.70
53645;DHT22;39547;45.554;12.068;2023-03-23T05:46:16;10.30;77.40
53645;DHT22;39547;45.554;12.068;2023-03-23T05:52:20;10.50;77.40
53645;DHT22;39547;45.554;12.068;2023-03-23T05:58:23;10.50;77.50
53645;DHT22;39547;45.554;12.068;2023-03-23T06:04:25;10.60;77.30
53645;DHT22;39547;45.554;12.068;2023-03-23T06:10:49;10.70;77.30
53645;DHT22;39547;45.554;12.068;2023-03-23T06:16:53;10.80;77.20
53645;DHT22;39547;45.554;12.068;2023-03-23T06:22:55;10.90;77.30
53645;DHT22;39547;45.554;12.068;2023-03-23T06:29:06;11.10;77.20
53645;DHT22;39547;45.554;12.068;2023-03-23T06:35:14;11.20;77.30
53645;DHT22;39547;45.554;12.068;2023-03-23T06:41:16;11.30;77.70
53645;DHT22;39547;45.554;12.068;2023-03-23T06:47:18;11.30;77.60
53645;DHT22;39547;45.554;12.068;2023-03-23T06:53:23;11.50;77.50
53645;DHT22;39547;45.554;12.068;2023-03-23T06:59:26;11.70;77.60
53645;DHT22;39547;45.554;12.068;2023-03-23T07:05:27;11.90;77.30
53645;DHT22;39547;45.554;12.068;2023-03-23T07:11:30;12.00;77.60
53645;DHT22;39547;45.554;12.068;2023-03-23T07:17:36;12.20;77.70
53645;DHT22;39547;45.554;12.068;2023-03-23T07:23:47;12.20;77.20
53645;DHT22;39547;45.554;12.068;2023-03-23T07:29:55;12.30;77.30
53645;DHT22;39547;45.554;12.068;2023-03-23T07:36:01;12.50;76.80
53645;DHT22;39547;45.554;12.068;2023-03-23T07:42:04;12.70;76.50
53645;DHT22;39547;45.554;12.068;2023-03-23T07:48:31;13.00;76.10
53645;DHT22;39547;45.554;12.068;2023-03-23T07:54:33;13.40;75.80
53645;DHT22;39547;45.554;12.068;2023-03-23T08:01:13;13.80;75.60
53645;DHT22;39547;45.554;12.068;2023-03-23T08:07:20;14.20;74.80
53645;DHT22;39547;45.554;12.068;2023-03-23T08:13:27;14.30;74.50
53645;DHT22;39547;45.554;12.068;2023-03-23T08:19:49;14.40;74.60
53645;DHT22;39547;45.554;12.068;2023-03-23T08:25:53;14.60;74.50
53645;DHT22;39547;45.554;12.068;2023-03-23T08:32:19;14.90;74.20
53645;DHT22;39547;45.554;12.068;2023-03-23T08:38:39;15.20;73.70
53645;DHT22;39547;45.554;12.068;2023-03-23T08:45:04;15.20;73.50
53645;DHT22;39547;45.554;12.068;2023-03-23T08:51:24;15.20;73.50
53645;DHT22;39547;45.554;12.068;2023-03-23T08:57:44;15.50;73.00
53645;DHT22;39547;45.554;12.068;2023-03-23T09:03:59;15.60;72.90
53645;DHT22;39547;45.554;12.068;2023-03-23T09:10:19;15.90;72.50
53645;DHT22;39547;45.554;12.068;2023-03-23T09:16:20;16.00;72.00
53645;DHT22;39547;45.554;12.068;2023-03-23T09:22:22;16.00;71.70
53645;DHT22;39547;45.554;12.068;2023-03-23T09:28:25;15.90;71.60
53645;DHT22;39547;45.554;12.068;2023-03-23T09:34:26;15.80;71.50
53645;DHT22;39547;45.554;12.068;2023-03-23T09:40:47;15.90;71.00
53645;DHT22;39547;45.554;12.068;2023-03-23T09:47:09;16.30;70.30
53645;DHT22;39547;45.554;12.068;2023-03-23T09:53:39;16.80;69.90
53645;DHT22;39547;45.554;12.068;2023-03-23T10:00:02;17.30;66.00
53645;DHT22;39547;45.554;12.068;2023-03-23T10:06:17;17.20;67.30
53645;DHT22;39547;45.554;12.068;2023-03-23T10:18:41;16.90;68.30
53645;DHT22;39547;45.554;12.068;2023-03-23T10:31:40;17.70;66.90
53645;DHT22;39547;45.554;12.068;2023-03-23T10:37:48;17.80;63.40
53645;DHT22;39547;45.554;12.068;2023-03-23T10:43:51;18.00;65.20
53645;DHT22;39547;45.554;12.068;2023-03-23T10:50:04;18.20;63.40
53645;DHT22;39547;45.554;12.068;2023-03-23T10:56:22;18.20;63.30
53645;DHT22;39547;45.554;12.068;2023-03-23T11:02:25;18.10;64.40
53645;DHT22;39547;45.554;12.068;2023-03-23T11:08:30;18.10;63.80
53645;DHT22;39547;45.554;12.068;2023-03-23T11:14:34;18.30;63.90
53645;DHT22;39547;45.554;12.068;2023-03-23T11:20:43;18.50;63.20
53645;DHT22;39547;45.554;12.068;2023-03-23T11:26:45;18.90;63.10
53645;DHT22;39547;45.554;12.068;2023-03-23T11:32:48;19.20;61.90
53645;DHT22;39547;45.554;12.068;2023-03-23T11:38:53;19.60;60.90
53645;DHT22;39547;45.554;12.068;2023-03-23T11:45:35;19.80;60.60
53645;DHT22;39547;45.554;12.068;2023-03-23T11:51:47;20.20;59.90
53645;DHT22;39547;45.554;12.068;2023-03-23T11:57:49;20.60;55.80
53645;DHT22;39547;45.554;12.068;2023-03-23T12:04:11;20.60;56.70
53645;DHT22;39547;45.554;12.068;2023-03-23T12:22:46;20.00;56.60
53645;DHT22;39547;45.554;12.068;2023-03-23T12:35:50;20.70;55.00
53645;DHT22;39547;45.554;12.068;2023-03-23T12:42:01;21.00;55.00
53645;DHT22;39547;45.554;12.068;2023-03-23T12:48:27;21.30;51.90
53645;DHT22;39547;45.554;12.068;2023-03-23T12:54:46;21.20;52.90
53645;DHT22;39547;45.554;12.068;2023-03-23T13:01:10;20.80;52.70
53645;DHT22;39547;45.554;12.068;2023-03-23T13:07:21;21.10;54.40
53645;DHT22;39547;45.554;12.068;2023-03-23T13:13:49;21.70;52.90
53645;DHT22;39547;45.554;12.068;2023-03-23T13:20:14;21.80;52.20
53645;DHT22;39547;45.554;12.068;2023-03-23T13:26:21;22.70;49.30
53645;DHT22;39547;45.554;12.068;2023-03-23T13:32:43;23.60;48.90
53645;DHT22;39547;45.554;12.068;2023-03-23T13:38:49;24.80;46.80
53645;DHT22;39547;45.554;12.068;2023-03-23T13:50:59;26.30;45.00
53645;DHT22;39547;45.554;12.068;2023-03-23T13:57:02;27.40;43.10
53645;DHT22;39547;45.554;12.068;2023-03-23T14:03:26;27.80;41.50
53645;DHT22;39547;45.554;12.068;2023-03-23T14:09:39;28.30;39.10
53645;DHT22;39547;45.554;12.068;2023-03-23T14:15:44;28.60;39.70
53645;DHT22;39547;45.554;12.068;2023-03-23T14:22:01;28.80;37.90
53645;DHT22;39547;45.554;12.068;2023-03-23T14:28:03;28.50;37.00
53645;DHT22;39547;45.554;12.068;2023-03-23T14:34:16;27.50;38.60
53645;DHT22;39547;45.554;12.068;2023-03-23T14:40:19;26.20;39.60
53645;DHT22;39547;45.554;12.068;2023-03-23T14:46:21;25.00;41.30
53645;DHT22;39547;45.554;12.068;2023-03-23T14:52:26;23.90;42.70
53645;DHT22;39547;45.554;12.068;2023-03-23T14:58:27;23.40;44.20
53645;DHT22;39547;45.554;12.068;2023-03-23T15:04:29;24.20;43.30
53645;DHT22;39547;45.554;12.068;2023-03-23T15:10:31;24.20;43.10
53645;DHT22;39547;45.554;12.068;2023-03-23T15:16:34;23.20;44.10
53645;DHT22;39547;45.554;12.068;2023-03-23T15:22:35;22.20;45.70
53645;DHT22;39547;45.554;12.068;2023-03-23T15:28:40;21.70;47.10
53645;DHT22;39547;45.554;12.068;2023-03-23T15:34:44;22.50;47.10
53645;DHT22;39547;45.554;12.068;2023-03-23T15:40:50;22.50;46.70
53645;DHT22;39547;45.554;12.068;2023-03-23T15:47:01;22.00;47.40
53645;DHT22;39547;45.554;12.068;2023-03-23T15:53:38;21.80;48.20
53645;DHT22;39547;45.554;12.068;2023-03-23T15:59:40;22.20;47.90
53645;DHT22;39547;45.554;12.068;2023-03-23T16:05:42;22.30;47.90
53645;DHT22;39547;45.554;12.068;2023-03-23T16:11:43;23.00;47.10
53645;DHT22;39547;45.554;12.068;2023-03-23T16:17:45;23.40;46.20
53645;DHT22;39547;45.554;12.068;2023-03-23T16:23:47;23.50;46.10
53645;DHT22;39547;45.554;12.068;2023-03-23T16:29:49;23.70;45.70
53645;DHT22;39547;45.554;12.068;2023-03-23T16:35:50;22.70;46.60
53645;DHT22;39547;45.554;12.068;2023-03-23T16:41:52;21.60;48.70
53645;DHT22;39547;45.554;12.068;2023-03-23T16:47:53;20.50;50.50
53645;DHT22;39547;45.554;12.068;2023-03-23T16:53:57;19.80;51.90
53645;DHT22;39547;45.554;12.068;2023-03-23T16:59:58;19.40;52.90
53645;DHT22;39547;45.554;12.068;2023-03-23T17:06:01;19.00;53.70
53645;DHT22;39547;45.554;12.068;2023-03-23T17:12:02;18.50;54.60
53645;DHT22;39547;45.554;12.068;2023-03-23T17:18:04;18.10;55.80
53645;DHT22;39547;45.554;12.068;2023-03-23T17:24:07;17.80;56.70
53645;DHT22;39547;45.554;12.068;2023-03-23T17:30:09;17.50;57.60
53645;DHT22;39547;45.554;12.068;2023-03-23T17:36:11;17.20;58.40
53645;DHT22;39547;45.554;12.068;2023-03-23T17:42:12;17.00;58.90
53645;DHT22;39547;45.554;12.068;2023-03-23T17:48:14;16.80;59.30
53645;DHT22;39547;45.554;12.068;2023-03-23T17:54:15;16.70;60.30
53645;DHT22;39547;45.554;12.068;2023-03-23T18:00:17;16.50;60.70
53645;DHT22;39547;45.554;12.068;2023-03-23T18:06:19;16.40;60.80
53645;DHT22;39547;45.554;12.068;2023-03-23T18:12:21;16.30;61.20
53645;DHT22;39547;45.554;12.068;2023-03-23T18:18:23;16.20;61.40
53645;DHT22;39547;45.554;12.068;2023-03-23T18:24:25;16.10;61.90
53645;DHT22;39547;45.554;12.068;2023-03-23T18:30:27;15.90;62.30
53645;DHT22;39547;45.554;12.068;2023-03-23T18:36:28;15.90;62.60
53645;DHT22;39547;45.554;12.068;2023-03-23T18:42:30;15.80;62.90
53645;DHT22;39547;45.554;12.068;2023-03-23T18:48:31;15.70;63.10
53645;DHT22;39547;45.554;12.068;2023-03-23T18:54:34;15.60;63.50
53645;DHT22;39547;45.554;12.068;2023-03-23T19:00:38;15.50;63.90
53645;DHT22;39547;45.554;12.068;2023-03-23T19:06:40;15.40;64.40
53645;DHT22;39547;45.554;12.068;2023-03-23T19:12:41;15.30;64.80
53645;DHT22;39547;45.554;12.068;2023-03-23T19:18:43;15.20;65.20
53645;DHT22;39547;45.554;12.068;2023-03-23T19:24:44;15.10;65.40
53645;DHT22;39547;45.554;12.068;2023-03-23T19:30:49;15.10;65.70
53645;DHT22;39547;45.554;12.068;2023-03-23T19:36:50;14.90;66.20
53645;DHT22;39547;45.554;12.068;2023-03-23T19:42:52;14.80;66.50
53645;DHT22;39547;45.554;12.068;2023-03-23T19:48:53;14.80;66.70
53645;DHT22;39547;45.554;12.068;2023-03-23T19:54:56;14.70;66.90
53645;DHT22;39547;45.554;12.068;2023-03-23T20:00:59;14.70;67.20
53645;DHT22;39547;45.554;12.068;2023-03-23T20:07:01;14.60;67.40
53645;DHT22;39547;45.554;12.068;2023-03-23T20:13:04;14.50;67.90
53645;DHT22;39547;45.554;12.068;2023-03-23T20:19:06;14.40;69.10
53645;DHT22;39547;45.554;12.068;2023-03-23T20:25:08;14.20;69.70
53645;DHT22;39547;45.554;12.068;2023-03-23T20:37:14;13.70;70.60
53645;DHT22;39547;45.554;12.068;2023-03-23T20:43:18;13.70;70.60
53645;DHT22;39547;45.554;12.068;2023-03-23T20:49:20;13.60;70.90
53645;DHT22;39547;45.554;12.068;2023-03-23T20:55:22;13.70;71.00
53645;DHT22;39547;45.554;12.068;2023-03-23T21:01:24;13.70;71.20
53645;DHT22;39547;45.554;12.068;2023-03-23T21:07:26;13.70;71.10
53645;DHT22;39547;45.554;12.068;2023-03-23T21:13:27;13.70;71.50
53645;DHT22;39547;45.554;12.068;2023-03-23T21:19:29;13.60;71.50
53645;DHT22;39547;45.554;12.068;2023-03-23T21:25:31;13.60;71.80
53645;DHT22;39547;45.554;12.068;2023-03-23T21:31:35;13.60;71.90
53645;DHT22;39547;45.554;12.068;2023-03-23T21:37:37;13.60;72.00
53645;DHT22;39547;45.554;12.068;2023-03-23T21:43:39;13.60;72.20
53645;DHT22;39547;45.554;12.068;2023-03-23T21:49:41;13.60;72.30
53645;DHT22;39547;45.554;12.068;2023-03-23T21:55:50;13.50;72.40
53645;DHT22;39547;45.554;12.068;2023-03-23T22:01:51;13.50;72.60
53645;DHT22;39547;45.554;12.068;2023-03-23T22:07:54;13.50;72.70
53645;DHT22;39547;45.554;12.068;2023-03-23T22:13:56;13.40;72.70
53645;DHT22;39547;45.554;12.068;2023-03-23T22:19:58;13.40;73.00
53645;DHT22;39547;45.554;12.068;2023-03-23T22:25:59;13.40;73.10
53645;DHT22;39547;45.554;12.068;2023-03-23T22:32:01;13.40;73.20
53645;DHT22;39547;45.554;12.068;2023-03-23T22:38:02;13.30;73.20
53645;DHT22;39547;45.554;12.068;2023-03-23T22:44:05;13.30;73.30
53645;DHT22;39547;45.554;12.068;2023-03-23T22:50:08;13.30;73.30
53645;DHT22;39547;45.554;12.068;2023-03-23T22:56:10;13.30;73.60
53645;DHT22;39547;45.554;12.068;2023-03-23T23:02:12;13.20;73.60
53645;DHT22;39547;45.554;12.068;2023-03-23T23:08:14;13.20;73.80
53645;DHT22;39547;45.554;12.068;2023-03-23T23:14:16;13.20;74.40
53645;DHT22;39547;45.554;12.068;2023-03-23T23:20:17;13.10;74.20
53645;DHT22;39547;45.554;12.068;2023-03-23T23:26:19;13.00;74.40
53645;DHT22;39547;45.554;12.068;2023-03-23T23:32:20;12.90;74.50
53645;DHT22;39547;45.554;12.068;2023-03-23T23:38:22;12.90;74.60
53645;DHT22;39547;45.554;12.068;2023-03-23T23:44:23;12.90;74.60
53645;DHT22;39547;45.554;12.068;2023-03-23T23:50:26;12.80;74.80
53645;DHT22;39547;45.554;12.068;2023-03-23T23:56:28;12.70;74.90
